sensor_id;sensor_type;location;lat;lon;timestamp;P1;durP1;ratioP1;P2;durP2;ratioP2
41261;SDS011;29629;52.532;13.352;2023-07-09T00:01:40;104.80;;;80.00;;
41261;SDS011;29629;52.532;13.352;2023-07-09T00:04:08;97.65;;;77.18;;
41261;SDS011;29629;52.532;13.352;2023-07-09T00:06:37;106.22;;;79.85;;
41261;SDS011;29629;52.532;13.352;2023-07-09T00:09:04;125.18;;;84.70;;
41261;SDS011;29629;52.532;13.352;2023-07-09T00:11:31;105.20;;;79.38;;
41261;SDS011;29629;52.532;13.352;2023-07-09T00:13:58;102.68;;;79.43;;
41261;SDS011;29629;52.532;13.352;2023-07-09T00:16:25;102.55;;;79.10;;
41261;SDS011;29629;52.532;13.352;2023-07-09T00:18:53;128.32;;;85.53;;
41261;SDS011;29629;52.532;13.352;2023-07-09T00:21:20;98.55;;;77.15;;
41261;SDS011;29629;52.532;13.352;2023-07-09T00:23:49;105.68;;;79.68;;
41261;SDS011;29629;52.532;13.352;2023-07-09T00:26:16;101.05;;;78.18;;
41261;SDS011;29629;52.532;13.352;2023-07-09T00:28:45;105.65;;;78.75;;
41261;SDS011;29629;52.532;13.352;2023-07-09T00:31:13;106.65;;;79.65;;
41261;SDS011;29629;52.532;13.352;2023-07-09T00:33:42;100.15;;;77.38;;
41261;SDS011;29629;52.532;13.352;2023-07-09T00:36:11;102.03;;;78.65;;
41261;SDS011;29629;52.532;13.352;2023-07-09T00:38:41;106.07;;;79.80;;
41261;SDS011;29629;52.532;13.352;2023-07-09T00:41:15;101.30;;;78.07;;
41261;SDS011;29629;52.532;13.352;2023-07-09T00:43:44;101.25;;;78.53;;
41261;SDS011;29629;52.532;13.352;2023-07-09T00:46:16;102.57;;;78.85;;
41261;SDS011;29629;52.532;13.352;2023-07-09T00:49:26;94.13;;;75.65;;
41261;SDS011;29629;52.532;13.352;2023-07-09T00:51:56;105.05;;;79.38;;
41261;SDS011;29629;52.532;13.352;2023-07-09T00:54:26;111.40;;;81.53;;
41261;SDS011;29629;52.532;13.352;2023-07-09T00:57:00;100.60;;;78.03;;
41261;SDS011;29629;52.532;13.352;2023-07-09T00:59:31;103.75;;;79.40;;
41261;SDS011;29629;52.532;13.352;2023-07-09T01:01:59;109.90;;;80.10;;
41261;SDS011;29629;52.532;13.352;2023-07-09T01:04:27;99.75;;;77.40;;
41261;SDS011;29629;52.532;13.352;2023-07-09T01:06:55;102.72;;;77.80;;
41261;SDS011;29629;52.532;13.352;2023-07-09T01:09:22;101.57;;;78.65;;
41261;SDS011;29629;52.532;13.352;2023-07-09T01:11:50;96.15;;;76.15;;
41261;SDS011;29629;52.532;13.352;2023-07-09T01:14:22;97.25;;;77.28;;
41261;SDS011;29629;52.532;13.352;2023-07-09T01:16:52;102.47;;;79.13;;
41261;SDS011;29629;52.532;13.352;2023-07-09T01:19:24;118.53;;;83.22;;
41261;SDS011;29629;52.532;13.352;2023-07-09T01:21:55;103.03;;;78.15;;
41261;SDS011;29629;52.532;13.352;2023-07-09T01:27:19;102.50;;;77.93;;
41261;SDS011;29629;52.532;13.352;2023-07-09T01:29:48;99.88;;;76.97;;
41261;SDS011;29629;52.532;13.352;2023-07-09T01:32:16;92.00;;;75.05;;
41261;SDS011;29629;52.532;13.352;2023-07-09T01:34:45;107.63;;;80.13;;
41261;SDS011;29629;52.532;13.352;2023-07-09T01:37:16;102.32;;;78.38;;
41261;SDS011;29629;52.532;13.352;2023-07-09T01:39:44;104.72;;;78.93;;
41261;SDS011;29629;52.532;13.352;2023-07-09T01:42:11;101.95;;;79.20;;
41261;SDS011;29629;52.532;13.352;2023-07-09T01:44:38;109.60;;;80.55;;
41261;SDS011;29629;52.532;13.352;2023-07-09T01:47:06;104.03;;;79.20;;
41261;SDS011;29629;52.532;13.352;2023-07-09T01:49:34;100.32;;;77.80;;
41261;SDS011;29629;52.532;13.352;2023-07-09T01:52:01;100.95;;;78.22;;
41261;SDS011;29629;52.532;13.352;2023-07-09T01:54:30;102.30;;;77.97;;
41261;SDS011;29629;52.532;13.352;2023-07-09T01:57:12;99.75;;;77.60;;
41261;SDS011;29629;52.532;13.352;2023-07-09T01:59:41;102.60;;;77.85;;
41261;SDS011;29629;52.532;13.352;2023-07-09T02:02:09;99.15;;;77.65;;
41261;SDS011;29629;52.532;13.352;2023-07-09T02:04:43;101.73;;;77.43;;
41261;SDS011;29629;52.532;13.352;2023-07-09T02:07:11;99.82;;;77.53;;
41261;SDS011;29629;52.532;13.352;2023-07-09T02:09:40;102.95;;;78.63;;
41261;SDS011;29629;52.532;13.352;2023-07-09T02:12:07;103.45;;;78.40;;
41261;SDS011;29629;52.532;13.352;2023-07-09T02:14:35;100.30;;;77.68;;
41261;SDS011;29629;52.532;13.352;2023-07-09T02:17:02;101.10;;;78.25;;
41261;SDS011;29629;52.532;13.352;2023-07-09T02:19:29;102.07;;;77.63;;
41261;SDS011;29629;52.532;13.352;2023-07-09T02:21:56;102.57;;;78.30;;
41261;SDS011;29629;52.532;13.352;2023-07-09T02:24:24;100.70;;;78.53;;
41261;SDS011;29629;52.532;13.352;2023-07-09T02:26:53;103.95;;;78.82;;
41261;SDS011;29629;52.532;13.352;2023-07-09T02:29:20;104.50;;;78.25;;
41261;SDS011;29629;52.532;13.352;2023-07-09T02:31:48;101.55;;;77.72;;
41261;SDS011;29629;52.532;13.352;2023-07-09T02:34:16;101.57;;;77.72;;
41261;SDS011;29629;52.532;13.352;2023-07-09T02:36:43;108.95;;;79.85;;
41261;SDS011;29629;52.532;13.352;2023-07-09T02:39:11;105.18;;;78.55;;
41261;SDS011;29629;52.532;13.352;2023-07-09T02:41:38;104.57;;;79.45;;
41261;SDS011;29629;52.532;13.352;2023-07-09T02:44:07;102.00;;;78.30;;
41261;SDS011;29629;52.532;13.352;2023-07-09T02:46:34;100.25;;;77.30;;
41261;SDS011;29629;52.532;13.352;2023-07-09T02:49:02;121.00;;;83.18;;
41261;SDS011;29629;52.532;13.352;2023-07-09T02:51:31;98.82;;;76.65;;
41261;SDS011;29629;52.532;13.352;2023-07-09T02:53:59;99.90;;;77.15;;
41261;SDS011;29629;52.532;13.352;2023-07-09T02:56:27;101.38;;;77.63;;
41261;SDS011;29629;52.532;13.352;2023-07-09T02:58:54;135.68;;;88.28;;
41261;SDS011;29629;52.532;13.352;2023-07-09T03:01:25;95.70;;;76.18;;
41261;SDS011;29629;52.532;13.352;2023-07-09T03:03:52;103.93;;;78.43;;
41261;SDS011;29629;52.532;13.352;2023-07-09T03:06:19;99.95;;;77.28;;
41261;SDS011;29629;52.532;13.352;2023-07-09T03:08:47;103.05;;;78.47;;
41261;SDS011;29629;52.532;13.352;2023-07-09T03:11:15;104.25;;;78.75;;
41261;SDS011;29629;52.532;13.352;2023-07-09T03:13:42;102.88;;;78.28;;
41261;SDS011;29629;52.532;13.352;2023-07-09T03:16:09;99.63;;;77.78;;
41261;SDS011;29629;52.532;13.352;2023-07-09T03:18:38;95.57;;;76.13;;
41261;SDS011;29629;52.532;13.352;2023-07-09T03:21:05;105.93;;;79.88;;
41261;SDS011;29629;52.532;13.352;2023-07-09T03:23:32;102.00;;;78.40;;
41261;SDS011;29629;52.532;13.352;2023-07-09T03:25:59;104.78;;;78.70;;
41261;SDS011;29629;52.532;13.352;2023-07-09T03:28:26;101.13;;;77.85;;
41261;SDS011;29629;52.532;13.352;2023-07-09T03:30:53;101.88;;;78.03;;
41261;SDS011;29629;52.532;13.352;2023-07-09T03:33:21;98.53;;;76.60;;
41261;SDS011;29629;52.532;13.352;2023-07-09T03:35:50;101.47;;;77.47;;
41261;SDS011;29629;52.532;13.352;2023-07-09T03:38:17;100.10;;;76.63;;
41261;SDS011;29629;52.532;13.352;2023-07-09T03:40:44;101.63;;;77.45;;
41261;SDS011;29629;52.532;13.352;2023-07-09T03:43:11;105.32;;;78.95;;
41261;SDS011;29629;52.532;13.352;2023-07-09T03:45:38;105.43;;;79.53;;
41261;SDS011;29629;52.532;13.352;2023-07-09T03:48:05;102.15;;;77.43;;
41261;SDS011;29629;52.532;13.352;2023-07-09T03:50:32;105.65;;;78.93;;
41261;SDS011;29629;52.532;13.352;2023-07-09T03:53:01;103.25;;;77.88;;
41261;SDS011;29629;52.532;13.352;2023-07-09T03:55:28;101.25;;;77.40;;
41261;SDS011;29629;52.532;13.352;2023-07-09T03:57:55;101.78;;;77.63;;
41261;SDS011;29629;52.532;13.352;2023-07-09T04:00:22;100.53;;;76.85;;
41261;SDS011;29629;52.532;13.352;2023-07-09T04:02:51;99.32;;;76.85;;
41261;SDS011;29629;52.532;13.352;2023-07-09T04:05:18;105.63;;;78.97;;
41261;SDS011;29629;52.532;13.352;2023-07-09T04:07:45;101.55;;;77.80;;
41261;SDS011;29629;52.532;13.352;2023-07-09T04:10:13;100.22;;;77.32;;
41261;SDS011;29629;52.532;13.352;2023-07-09T04:12:40;96.78;;;75.88;;
41261;SDS011;29629;52.532;13.352;2023-07-09T04:15:08;111.20;;;80.38;;
41261;SDS011;29629;52.532;13.352;2023-07-09T04:17:37;104.45;;;78.32;;
41261;SDS011;29629;52.532;13.352;2023-07-09T04:20:05;101.53;;;77.63;;
41261;SDS011;29629;52.532;13.352;2023-07-09T04:22:34;101.63;;;76.72;;
41261;SDS011;29629;52.532;13.352;2023-07-09T04:25:02;102.82;;;78.30;;
41261;SDS011;29629;52.532;13.352;2023-07-09T04:27:32;100.82;;;77.88;;
41261;SDS011;29629;52.532;13.352;2023-07-09T04:29:59;98.65;;;75.95;;
41261;SDS011;29629;52.532;13.352;2023-07-09T04:32:27;98.05;;;76.82;;
41261;SDS011;29629;52.532;13.352;2023-07-09T04:34:54;99.72;;;76.88;;
41261;SDS011;29629;52.532;13.352;2023-07-09T04:37:21;105.20;;;78.50;;
41261;SDS011;29629;52.532;13.352;2023-07-09T04:39:48;95.47;;;75.88;;
41261;SDS011;29629;52.532;13.352;2023-07-09T04:42:16;101.43;;;77.50;;
41261;SDS011;29629;52.532;13.352;2023-07-09T04:44:45;101.25;;;78.18;;
41261;SDS011;29629;52.532;13.352;2023-07-09T04:47:12;101.90;;;78.47;;
41261;SDS011;29629;52.532;13.352;2023-07-09T04:49:39;106.03;;;79.15;;
41261;SDS011;29629;52.532;13.352;2023-07-09T04:52:07;102.38;;;78.40;;
41261;SDS011;29629;52.532;13.352;2023-07-09T04:54:37;101.65;;;77.93;;
41261;SDS011;29629;52.532;13.352;2023-07-09T04:57:05;103.00;;;78.97;;
41261;SDS011;29629;52.532;13.352;2023-07-09T04:59:32;103.78;;;79.72;;
41261;SDS011;29629;52.532;13.352;2023-07-09T05:02:01;100.82;;;79.20;;
41261;SDS011;29629;52.532;13.352;2023-07-09T05:04:28;102.82;;;79.38;;
41261;SDS011;29629;52.532;13.352;2023-07-09T05:06:56;104.72;;;80.22;;
41261;SDS011;29629;52.532;13.352;2023-07-09T05:09:23;101.35;;;78.97;;
41261;SDS011;29629;52.532;13.352;2023-07-09T05:11:50;99.43;;;78.35;;
41261;SDS011;29629;52.532;13.352;2023-07-09T05:14:17;101.47;;;79.10;;
41261;SDS011;29629;52.532;13.352;2023-07-09T05:16:44;102.68;;;80.38;;
41261;SDS011;29629;52.532;13.352;2023-07-09T05:19:13;107.88;;;80.90;;
41261;SDS011;29629;52.532;13.352;2023-07-09T05:21:40;103.63;;;79.75;;
41261;SDS011;29629;52.532;13.352;2023-07-09T05:24:06;101.03;;;79.13;;
41261;SDS011;29629;52.532;13.352;2023-07-09T05:26:34;103.55;;;80.68;;
41261;SDS011;29629;52.532;13.352;2023-07-09T05:29:02;131.00;;;88.07;;
41261;SDS011;29629;52.532;13.352;2023-07-09T05:31:30;95.63;;;78.28;;
41261;SDS011;29629;52.532;13.352;2023-07-09T05:33:58;101.40;;;80.68;;
41261;SDS011;29629;52.532;13.352;2023-07-09T05:36:26;99.53;;;79.25;;
41261;SDS011;29629;52.532;13.352;2023-07-09T05:38:54;127.80;;;87.28;;
41261;SDS011;29629;52.532;13.352;2023-07-09T05:41:22;107.22;;;82.00;;
41261;SDS011;29629;52.532;13.352;2023-07-09T05:43:49;101.18;;;80.65;;
41261;SDS011;29629;52.532;13.352;2023-07-09T05:46:17;108.30;;;83.03;;
41261;SDS011;29629;52.532;13.352;2023-07-09T05:48:45;105.10;;;81.43;;
41261;SDS011;29629;52.532;13.352;2023-07-09T05:51:12;110.25;;;82.57;;
41261;SDS011;29629;52.532;13.352;2023-07-09T05:53:40;102.30;;;81.30;;
41261;SDS011;29629;52.532;13.352;2023-07-09T05:56:07;103.57;;;81.38;;
41261;SDS011;29629;52.532;13.352;2023-07-09T05:58:34;104.78;;;83.13;;
41261;SDS011;29629;52.532;13.352;2023-07-09T06:01:01;96.18;;;80.00;;
41261;SDS011;29629;52.532;13.352;2023-07-09T06:03:28;99.72;;;80.47;;
41261;SDS011;29629;52.532;13.352;2023-07-09T06:05:57;103.18;;;82.97;;
41261;SDS011;29629;52.532;13.352;2023-07-09T06:08:25;103.18;;;82.68;;
41261;SDS011;29629;52.532;13.352;2023-07-09T06:10:55;107.57;;;83.50;;
41261;SDS011;29629;52.532;13.352;2023-07-09T06:13:23;102.28;;;83.40;;
41261;SDS011;29629;52.532;13.352;2023-07-09T06:15:51;105.57;;;84.28;;
41261;SDS011;29629;52.532;13.352;2023-07-09T06:18:20;102.97;;;83.13;;
41261;SDS011;29629;52.532;13.352;2023-07-09T06:20:48;103.75;;;83.10;;
41261;SDS011;29629;52.532;13.352;2023-07-09T06:23:15;103.72;;;83.40;;
41261;SDS011;29629;52.532;13.352;2023-07-09T06:25:43;95.70;;;80.72;;
41261;SDS011;29629;52.532;13.352;2023-07-09T06:28:14;98.40;;;82.60;;
41261;SDS011;29629;52.532;13.352;2023-07-09T06:30:41;103.95;;;84.90;;
41261;SDS011;29629;52.532;13.352;2023-07-09T06:33:08;103.05;;;83.57;;
41261;SDS011;29629;52.532;13.352;2023-07-09T06:35:36;105.43;;;84.70;;
41261;SDS011;29629;52.532;13.352;2023-07-09T06:38:02;97.35;;;82.05;;
41261;SDS011;29629;52.532;13.352;2023-07-09T06:40:29;105.22;;;85.13;;
41261;SDS011;29629;52.532;13.352;2023-07-09T06:42:56;101.88;;;84.15;;
41261;SDS011;29629;52.532;13.352;2023-07-09T06:45:25;108.97;;;87.15;;
41261;SDS011;29629;52.532;13.352;2023-07-09T06:47:52;109.68;;;87.40;;
41261;SDS011;29629;52.532;13.352;2023-07-09T06:50:19;104.60;;;85.75;;
41261;SDS011;29629;52.532;13.352;2023-07-09T06:52:46;103.20;;;85.22;;
41261;SDS011;29629;52.532;13.352;2023-07-09T06:55:12;106.22;;;86.47;;
41261;SDS011;29629;52.532;13.352;2023-07-09T06:57:39;102.93;;;85.30;;
41261;SDS011;29629;52.532;13.352;2023-07-09T07:00:07;104.40;;;85.40;;
41261;SDS011;29629;52.532;13.352;2023-07-09T07:02:36;105.28;;;86.28;;
41261;SDS011;29629;52.532;13.352;2023-07-09T07:05:03;106.63;;;87.30;;
41261;SDS011;29629;52.532;13.352;2023-07-09T07:07:30;100.95;;;84.93;;
41261;SDS011;29629;52.532;13.352;2023-07-09T07:09:57;100.65;;;85.15;;
41261;SDS011;29629;52.532;13.352;2023-07-09T07:12:25;98.72;;;84.38;;
41261;SDS011;29629;52.532;13.352;2023-07-09T07:14:53;100.60;;;85.47;;
41261;SDS011;29629;52.532;13.352;2023-07-09T07:17:21;101.93;;;85.72;;
41261;SDS011;29629;52.532;13.352;2023-07-09T07:19:50;102.90;;;86.80;;
41261;SDS011;29629;52.532;13.352;2023-07-09T07:22:17;101.50;;;85.93;;
41261;SDS011;29629;52.532;13.352;2023-07-09T07:24:44;99.60;;;85.93;;
41261;SDS011;29629;52.532;13.352;2023-07-09T07:27:11;105.55;;;88.32;;
41261;SDS011;29629;52.532;13.352;2023-07-09T07:29:38;95.22;;;84.97;;
41261;SDS011;29629;52.532;13.352;2023-07-09T07:32:06;101.65;;;88.22;;
41261;SDS011;29629;52.532;13.352;2023-07-09T07:34:33;101.53;;;87.10;;
41261;SDS011;29629;52.532;13.352;2023-07-09T07:37:02;99.20;;;87.03;;
41261;SDS011;29629;52.532;13.352;2023-07-09T07:39:29;101.50;;;88.57;;
41261;SDS011;29629;52.532;13.352;2023-07-09T07:41:56;104.28;;;89.00;;
41261;SDS011;29629;52.532;13.352;2023-07-09T07:44:23;97.93;;;87.35;;
41261;SDS011;29629;52.532;13.352;2023-07-09T07:46:50;100.03;;;88.32;;
41261;SDS011;29629;52.532;13.352;2023-07-09T07:49:17;108.20;;;91.60;;
41261;SDS011;29629;52.532;13.352;2023-07-09T07:51:44;99.95;;;88.97;;
41261;SDS011;29629;52.532;13.352;2023-07-09T07:54:12;103.82;;;90.70;;
41261;SDS011;29629;52.532;13.352;2023-07-09T07:56:39;99.20;;;88.32;;
41261;SDS011;29629;52.532;13.352;2023-07-09T07:59:08;109.35;;;92.97;;
41261;SDS011;29629;52.532;13.352;2023-07-09T08:01:35;96.32;;;85.93;;
41261;SDS011;29629;52.532;13.352;2023-07-09T08:04:02;104.53;;;89.53;;
41261;SDS011;29629;52.532;13.352;2023-07-09T08:06:29;98.82;;;87.80;;
41261;SDS011;29629;52.532;13.352;2023-07-09T08:08:57;108.82;;;91.10;;
41261;SDS011;29629;52.532;13.352;2023-07-09T08:11:25;98.22;;;87.55;;
41261;SDS011;29629;52.532;13.352;2023-07-09T08:13:54;97.63;;;87.32;;
41261;SDS011;29629;52.532;13.352;2023-07-09T08:16:21;95.95;;;85.15;;
41261;SDS011;29629;52.532;13.352;2023-07-09T08:18:48;98.68;;;87.93;;
41261;SDS011;29629;52.532;13.352;2023-07-09T08:21:17;100.20;;;89.22;;
41261;SDS011;29629;52.532;13.352;2023-07-09T08:23:44;100.28;;;89.45;;
41261;SDS011;29629;52.532;13.352;2023-07-09T08:26:11;111.80;;;93.65;;
41261;SDS011;29629;52.532;13.352;2023-07-09T08:28:39;97.72;;;87.65;;
41261;SDS011;29629;52.532;13.352;2023-07-09T08:31:07;101.82;;;90.65;;
41261;SDS011;29629;52.532;13.352;2023-07-09T08:33:35;98.53;;;87.82;;
41261;SDS011;29629;52.532;13.352;2023-07-09T08:36:02;100.97;;;90.03;;
41261;SDS011;29629;52.532;13.352;2023-07-09T08:38:29;100.63;;;90.00;;
41261;SDS011;29629;52.532;13.352;2023-07-09T08:40:58;95.45;;;85.28;;
41261;SDS011;29629;52.532;13.352;2023-07-09T08:43:31;114.88;;;95.55;;
41261;SDS011;29629;52.532;13.352;2023-07-09T08:46:05;100.63;;;89.90;;
41261;SDS011;29629;52.532;13.352;2023-07-09T08:48:42;99.45;;;88.68;;
41261;SDS011;29629;52.532;13.352;2023-07-09T08:51:14;98.00;;;86.68;;
41261;SDS011;29629;52.532;13.352;2023-07-09T08:53:45;91.28;;;82.38;;
41261;SDS011;29629;52.532;13.352;2023-07-09T08:56:15;86.93;;;78.30;;
41261;SDS011;29629;52.532;13.352;2023-07-09T08:58:43;94.85;;;86.50;;
41261;SDS011;29629;52.532;13.352;2023-07-09T09:01:16;167.98;;;157.88;;
41261;SDS011;29629;52.532;13.352;2023-07-09T09:03:46;273.10;;;260.63;;
41261;SDS011;29629;52.532;13.352;2023-07-09T09:06:17;310.58;;;295.40;;
41261;SDS011;29629;52.532;13.352;2023-07-09T09:08:47;394.77;;;375.95;;
41261;SDS011;29629;52.532;13.352;2023-07-09T09:11:30;406.27;;;386.58;;
41261;SDS011;29629;52.532;13.352;2023-07-09T09:14:05;426.60;;;406.73;;
41261;SDS011;29629;52.532;13.352;2023-07-09T09:16:45;441.50;;;419.90;;
41261;SDS011;29629;52.532;13.352;2023-07-09T09:19:15;446.45;;;425.38;;
41261;SDS011;29629;52.532;13.352;2023-07-09T09:21:48;484.38;;;461.08;;
41261;SDS011;29629;52.532;13.352;2023-07-09T09:24:23;508.75;;;484.02;;
41261;SDS011;29629;52.532;13.352;2023-07-09T09:29:24;598.83;;;570.72;;
41261;SDS011;29629;52.532;13.352;2023-07-09T09:31:53;570.60;;;544.33;;
41261;SDS011;29629;52.532;13.352;2023-07-09T09:34:23;589.38;;;561.00;;
41261;SDS011;29629;52.532;13.352;2023-07-09T09:36:52;585.08;;;558.80;;
41261;SDS011;29629;52.532;13.352;2023-07-09T09:39:19;437.85;;;415.88;;
41261;SDS011;29629;52.532;13.352;2023-07-09T09:41:46;419.40;;;398.42;;
41261;SDS011;29629;52.532;13.352;2023-07-09T09:44:17;418.75;;;397.88;;
41261;SDS011;29629;52.532;13.352;2023-07-09T09:46:47;382.88;;;363.08;;
41261;SDS011;29629;52.532;13.352;2023-07-09T09:49:15;436.92;;;415.30;;
41261;SDS011;29629;52.532;13.352;2023-07-09T09:51:43;399.65;;;379.35;;
41261;SDS011;29629;52.532;13.352;2023-07-09T09:54:13;419.20;;;398.27;;
41261;SDS011;29629;52.532;13.352;2023-07-09T09:56:44;407.67;;;387.15;;
41261;SDS011;29629;52.532;13.352;2023-07-09T09:59:16;397.80;;;377.63;;
41261;SDS011;29629;52.532;13.352;2023-07-09T10:01:45;401.38;;;380.77;;
41261;SDS011;29629;52.532;13.352;2023-07-09T10:04:16;358.73;;;339.63;;
41261;SDS011;29629;52.532;13.352;2023-07-09T10:06:46;302.95;;;286.38;;
41261;SDS011;29629;52.532;13.352;2023-07-09T10:09:19;307.80;;;289.77;;
41261;SDS011;29629;52.532;13.352;2023-07-09T10:11:57;325.83;;;308.15;;
41261;SDS011;29629;52.532;13.352;2023-07-09T10:14:32;333.92;;;315.80;;
41261;SDS011;29629;52.532;13.352;2023-07-09T10:17:05;303.58;;;286.70;;
41261;SDS011;29629;52.532;13.352;2023-07-09T10:19:44;322.45;;;304.73;;
41261;SDS011;29629;52.532;13.352;2023-07-09T10:22:17;295.27;;;277.75;;
41261;SDS011;29629;52.532;13.352;2023-07-09T10:24:52;311.20;;;294.80;;
41261;SDS011;29629;52.532;13.352;2023-07-09T10:27:29;310.27;;;293.08;;
41261;SDS011;29629;52.532;13.352;2023-07-09T10:32:54;333.52;;;316.80;;
41261;SDS011;29629;52.532;13.352;2023-07-09T10:35:32;308.10;;;291.15;;
41261;SDS011;29629;52.532;13.352;2023-07-09T10:38:10;290.88;;;274.42;;
41261;SDS011;29629;52.532;13.352;2023-07-09T10:40:49;278.38;;;262.13;;
41261;SDS011;29629;52.532;13.352;2023-07-09T10:43:21;265.90;;;250.48;;
41261;SDS011;29629;52.532;13.352;2023-07-09T10:45:53;255.48;;;240.60;;
41261;SDS011;29629;52.532;13.352;2023-07-09T10:48:28;241.88;;;227.43;;
41261;SDS011;29629;52.532;13.352;2023-07-09T10:51:01;234.48;;;220.27;;
41261;SDS011;29629;52.532;13.352;2023-07-09T10:53:31;229.60;;;215.07;;
41261;SDS011;29629;52.532;13.352;2023-07-09T10:56:01;223.77;;;210.10;;
41261;SDS011;29629;52.532;13.352;2023-07-09T10:58:34;224.82;;;211.45;;
41261;SDS011;29629;52.532;13.352;2023-07-09T11:01:05;206.48;;;194.15;;
41261;SDS011;29629;52.532;13.352;2023-07-09T11:03:37;209.43;;;196.02;;
41261;SDS011;29629;52.532;13.352;2023-07-09T11:06:14;235.73;;;221.75;;
41261;SDS011;29629;52.532;13.352;2023-07-09T11:08:45;231.30;;;216.98;;
41261;SDS011;29629;52.532;13.352;2023-07-09T11:11:20;211.98;;;198.60;;
41261;SDS011;29629;52.532;13.352;2023-07-09T11:13:55;228.25;;;214.55;;
41261;SDS011;29629;52.532;13.352;2023-07-09T11:16:27;232.10;;;217.83;;
41261;SDS011;29629;52.532;13.352;2023-07-09T11:18:59;250.75;;;234.52;;
41261;SDS011;29629;52.532;13.352;2023-07-09T11:21:30;332.40;;;313.45;;
41261;SDS011;29629;52.532;13.352;2023-07-09T11:23:57;289.92;;;273.63;;
41261;SDS011;29629;52.532;13.352;2023-07-09T11:26:26;298.15;;;281.38;;
41261;SDS011;29629;52.532;13.352;2023-07-09T11:29:09;294.55;;;275.27;;
41261;SDS011;29629;52.532;13.352;2023-07-09T11:31:41;279.60;;;263.30;;
41261;SDS011;29629;52.532;13.352;2023-07-09T11:34:15;269.55;;;254.60;;
41261;SDS011;29629;52.532;13.352;2023-07-09T11:36:48;287.15;;;270.50;;
41261;SDS011;29629;52.532;13.352;2023-07-09T11:39:20;308.25;;;291.10;;
41261;SDS011;29629;52.532;13.352;2023-07-09T11:41:52;287.90;;;271.48;;
41261;SDS011;29629;52.532;13.352;2023-07-09T11:44:21;301.83;;;285.45;;
41261;SDS011;29629;52.532;13.352;2023-07-09T11:46:51;287.42;;;270.90;;
41261;SDS011;29629;52.532;13.352;2023-07-09T11:49:24;308.35;;;291.08;;
41261;SDS011;29629;52.532;13.352;2023-07-09T11:51:57;290.52;;;273.92;;
41261;SDS011;29629;52.532;13.352;2023-07-09T11:54:28;284.55;;;268.48;;
41261;SDS011;29629;52.532;13.352;2023-07-09T11:57:01;284.52;;;267.98;;
41261;SDS011;29629;52.532;13.352;2023-07-09T11:59:29;281.60;;;265.77;;
41261;SDS011;29629;52.532;13.352;2023-07-09T12:01:56;270.42;;;255.25;;
41261;SDS011;29629;52.532;13.352;2023-07-09T12:04:28;279.58;;;263.05;;
41261;SDS011;29629;52.532;13.352;2023-07-09T12:07:00;270.48;;;255.50;;
41261;SDS011;29629;52.532;13.352;2023-07-09T12:09:32;269.85;;;253.57;;
41261;SDS011;29629;52.532;13.352;2023-07-09T12:12:04;184.57;;;172.48;;
41261;SDS011;29629;52.532;13.352;2023-07-09T12:14:42;190.95;;;178.27;;
41261;SDS011;29629;52.532;13.352;2023-07-09T12:17:09;180.23;;;168.48;;
41261;SDS011;29629;52.532;13.352;2023-07-09T12:19:36;300.40;;;284.40;;
41261;SDS011;29629;52.532;13.352;2023-07-09T12:22:06;298.45;;;282.13;;
41261;SDS011;29629;52.532;13.352;2023-07-09T12:24:42;199.80;;;187.00;;
41261;SDS011;29629;52.532;13.352;2023-07-09T12:27:22;357.38;;;338.75;;
41261;SDS011;29629;52.532;13.352;2023-07-09T12:29:52;378.42;;;359.20;;
41261;SDS011;29629;52.532;13.352;2023-07-09T12:32:20;387.23;;;367.42;;
41261;SDS011;29629;52.532;13.352;2023-07-09T12:34:52;374.27;;;355.23;;
41261;SDS011;29629;52.532;13.352;2023-07-09T12:37:21;379.25;;;359.45;;
41261;SDS011;29629;52.532;13.352;2023-07-09T12:39:51;389.42;;;369.23;;
41261;SDS011;29629;52.532;13.352;2023-07-09T12:42:19;455.20;;;433.13;;
41261;SDS011;29629;52.532;13.352;2023-07-09T12:44:55;448.77;;;427.02;;
41261;SDS011;29629;52.532;13.352;2023-07-09T12:47:23;433.10;;;411.80;;
41261;SDS011;29629;52.532;13.352;2023-07-09T12:49:50;429.75;;;408.50;;
41261;SDS011;29629;52.532;13.352;2023-07-09T12:52:27;424.65;;;403.77;;
41261;SDS011;29629;52.532;13.352;2023-07-09T12:54:57;414.92;;;393.58;;
41261;SDS011;29629;52.532;13.352;2023-07-09T12:57:25;423.25;;;401.60;;
41261;SDS011;29629;52.532;13.352;2023-07-09T12:59:53;422.85;;;402.08;;
41261;SDS011;29629;52.532;13.352;2023-07-09T13:02:22;456.48;;;434.58;;
41261;SDS011;29629;52.532;13.352;2023-07-09T13:04:57;504.38;;;480.80;;
41261;SDS011;29629;52.532;13.352;2023-07-09T13:07:29;567.97;;;541.25;;
41261;SDS011;29629;52.532;13.352;2023-07-09T13:10:04;534.63;;;509.05;;
41261;SDS011;29629;52.532;13.352;2023-07-09T13:12:33;549.50;;;523.55;;
41261;SDS011;29629;52.532;13.352;2023-07-09T13:15:01;538.47;;;513.25;;
41261;SDS011;29629;52.532;13.352;2023-07-09T13:17:30;546.30;;;520.65;;
41261;SDS011;29629;52.532;13.352;2023-07-09T13:19:57;551.90;;;526.25;;
41261;SDS011;29629;52.532;13.352;2023-07-09T13:22:24;554.38;;;528.55;;
41261;SDS011;29629;52.532;13.352;2023-07-09T13:24:55;532.60;;;507.17;;
41261;SDS011;29629;52.532;13.352;2023-07-09T13:27:22;535.35;;;510.02;;
41261;SDS011;29629;52.532;13.352;2023-07-09T13:29:49;538.60;;;513.53;;
41261;SDS011;29629;52.532;13.352;2023-07-09T13:32:16;523.95;;;499.25;;
41261;SDS011;29629;52.532;13.352;2023-07-09T13:37:43;501.20;;;476.75;;
41261;SDS011;29629;52.532;13.352;2023-07-09T13:40:13;492.35;;;469.08;;
41261;SDS011;29629;52.532;13.352;2023-07-09T13:42:41;491.95;;;468.42;;
41261;SDS011;29629;52.532;13.352;2023-07-09T13:45:16;480.05;;;457.95;;
41261;SDS011;29629;52.532;13.352;2023-07-09T13:47:46;468.40;;;445.83;;
41261;SDS011;29629;52.532;13.352;2023-07-09T13:50:13;445.50;;;424.10;;
41261;SDS011;29629;52.532;13.352;2023-07-09T13:52:41;358.30;;;341.83;;
41261;SDS011;29629;52.532;13.352;2023-07-09T13:55:14;358.70;;;341.55;;
41261;SDS011;29629;52.532;13.352;2023-07-09T13:57:43;353.70;;;337.38;;
41261;SDS011;29629;52.532;13.352;2023-07-09T14:00:11;348.42;;;332.83;;
41261;SDS011;29629;52.532;13.352;2023-07-09T14:02:39;360.70;;;344.10;;
41261;SDS011;29629;52.532;13.352;2023-07-09T14:05:07;357.25;;;340.88;;
41261;SDS011;29629;52.532;13.352;2023-07-09T14:07:36;364.58;;;347.58;;
41261;SDS011;29629;52.532;13.352;2023-07-09T14:10:06;357.52;;;340.73;;
41261;SDS011;29629;52.532;13.352;2023-07-09T14:12:40;362.67;;;345.77;;
41261;SDS011;29629;52.532;13.352;2023-07-09T14:15:11;350.63;;;334.65;;
41261;SDS011;29629;52.532;13.352;2023-07-09T14:17:40;360.88;;;344.48;;